createdAt,value
2023-05-24T00:02:14.687Z,101415.06
2023-05-24T00:04:50.143Z,101411.13
2023-05-24T00:07:22.988Z,101410.81
2023-05-24T00:09:55.143Z,101416.19
2023-05-24T00:12:28.811Z,101425.25
2023-05-24T00:15:01.058Z,101418.91
2023-05-24T00:17:35.223Z,101424.41
2023-05-24T00:20:14.657Z,101429.19
2023-05-24T00:22:47.462Z,101431.19
2023-05-24T00:25:19.765Z,101428.50
2023-05-24T00:27:52.441Z,101431.63
2023-05-24T00:30:24.708Z,101434.56
2023-05-24T00:32:57.934Z,101439.22
2023-05-24T00:35:32.782Z,101438.53
2023-05-24T00:38:06.842Z,101432.88
2023-05-24T00:40:39.024Z,101432.59
2023-05-24T00:43:11.494Z,101426.22
2023-05-24T00:45:43.990Z,101429.47
2023-05-24T00:48:17.945Z,101430.59
2023-05-24T00:50:52.703Z,101435.56
2023-05-24T00:53:25.384Z,101424.78
2023-05-24T00:56:00.863Z,101430.84
2023-05-24T01:28:04.713Z,101431.69
2023-05-24T01:30:39.930Z,101430.72
2023-05-24T01:33:45.252Z,101437.97
2023-05-24T01:36:20.635Z,101435.97
2023-05-24T01:38:57.022Z,101437.97
2023-05-24T01:41:41.480Z,101434.66
2023-05-24T01:44:24.702Z,101449.25
2023-05-24T01:47:08.371Z,101436.38
2023-05-24T01:49:47.430Z,101443.31
2023-05-24T01:52:23.622Z,101434.81
2023-05-24T01:54:58.526Z,101437.06
2023-05-24T01:57:32.585Z,101437.25
2023-05-24T02:00:10.318Z,101442.47
2023-05-24T02:02:43.371Z,101446.84
2023-05-24T02:05:15.921Z,101437.53
2023-05-24T02:07:48.697Z,101439.78
2023-05-24T02:10:21.308Z,101438.38
2023-05-24T02:12:54.313Z,101441.19
2023-05-24T02:15:30.882Z,101445.16
2023-05-24T02:18:04.534Z,101444.03
2023-05-24T02:20:37.696Z,101444.72
2023-05-24T02:23:10.688Z,101443.06
2023-05-24T02:25:43.176Z,101435.28
2023-05-24T02:28:16.365Z,101443.47
2023-05-24T02:30:51.855Z,101437.69
2023-05-24T02:33:26.168Z,101438.38
2023-05-24T02:35:58.255Z,101442.47
2023-05-24T02:38:32.539Z,101430.91
2023-05-24T02:41:04.442Z,101432.16
2023-05-24T02:43:36.732Z,101441.09
2023-05-24T02:46:11.559Z,101436.56
2023-05-24T02:48:44.466Z,101442.47
2023-05-24T02:51:16.661Z,101434.41
2023-05-24T02:53:49.083Z,101433.56
2023-05-24T02:56:22.638Z,101441.78
2023-05-24T02:58:57.157Z,101434.44
2023-05-24T03:01:31.877Z,101445.75
2023-05-24T03:04:04.618Z,101449.41
2023-05-24T03:06:36.557Z,101435.84
2023-05-24T03:09:09.866Z,101438.81
2023-05-24T03:11:41.676Z,101437.13
2023-05-24T03:14:14.161Z,101439.94
2023-05-24T03:16:48.833Z,101436.56
2023-05-24T03:19:21.242Z,101440.38
2023-05-24T03:21:53.299Z,101446.03
2023-05-24T03:24:26.620Z,101450.25
2023-05-24T03:26:58.613Z,101453.25
2023-05-24T03:29:31.102Z,101447.31
2023-05-24T03:32:05.984Z,101455.22
2023-05-24T03:34:38.465Z,101452.53
2023-05-24T03:37:10.569Z,101449.13
2023-05-24T03:39:43.079Z,101450.97
2023-05-24T03:42:15.130Z,101453.78
2023-05-24T03:44:47.501Z,101463.97
2023-05-24T03:47:22.365Z,101460.31
2023-05-24T03:49:54.838Z,101459.16
2023-05-24T03:52:26.811Z,101457.31
2023-05-24T03:54:59.109Z,101460.28
2023-05-24T04:00:31.343Z,101460.72
2023-05-24T04:03:07.177Z,101457.47
2023-05-24T04:05:39.743Z,101455.63
2023-05-24T04:08:12.919Z,101455.09
2023-05-24T04:10:45.477Z,101460.72
2023-05-24T04:13:17.495Z,101460.47
2023-05-24T04:15:50.160Z,101458.06
2023-05-24T04:18:25.208Z,101469.06
2023-05-24T04:20:57.779Z,101470.47
2023-05-24T04:23:29.855Z,101464.81
2023-05-24T04:26:02.257Z,101474.56
2023-05-24T04:28:35.133Z,101472.16
2023-05-24T04:31:11.081Z,101476.41
2023-05-24T04:33:45.859Z,101476.84
2023-05-24T04:36:18.503Z,101483.31
2023-05-24T04:38:50.945Z,101480.34
2023-05-24T04:41:24.885Z,101481.22
2023-05-24T04:43:56.980Z,101492.25
2023-05-24T04:46:29.883Z,101494.50
2023-05-24T04:49:06.161Z,101484.44
2023-05-24T04:51:39.018Z,101494.50
2023-05-24T04:54:12.080Z,101495.91
2023-05-24T04:56:44.565Z,101505.22
2023-05-24T04:59:16.688Z,101512.88
2023-05-24T05:01:49.086Z,101504.53
2023-05-24T05:04:23.963Z,101506.66
2023-05-24T05:06:56.575Z,101517.53
2023-05-24T05:09:28.865Z,101523.59
2023-05-24T05:12:01.606Z,101521.47
2023-05-24T05:14:33.813Z,101521.44
2023-05-24T05:17:06.801Z,101523.72
2023-05-24T05:19:41.504Z,101521.63
2023-05-24T05:22:14.437Z,101520.78
2023-05-24T05:24:46.613Z,101532.09
2023-05-24T05:27:19.250Z,101531.94
2023-05-24T05:29:51.259Z,101531.22
2023-05-24T05:32:23.997Z,101530.69
2023-05-24T05:34:58.903Z,101532.53
2023-05-24T05:37:31.607Z,101541.25
2023-05-24T05:40:05.038Z,101540.56
2023-05-24T05:42:37.647Z,101540.84
2023-05-24T05:45:11.999Z,101557.09
2023-05-24T05:47:45.611Z,101552.00
2023-05-24T05:50:20.739Z,101568.81
2023-05-24T05:52:53.538Z,101556.56
2023-05-24T05:55:26.245Z,101560.38
2023-05-24T05:57:59.240Z,101562.78
2023-05-24T06:00:32.039Z,101562.47
2023-05-24T06:03:05.024Z,101565.16
2023-05-24T06:05:40.555Z,101566.44
2023-05-24T06:08:14.928Z,101571.81
2023-05-24T06:10:47.517Z,101565.88
2023-05-24T06:13:20.242Z,101578.56
2023-05-24T06:15:53.467Z,101568.25
2023-05-24T06:18:28.175Z,101585.66
2023-05-24T06:21:02.935Z,101579.84
2023-05-24T06:23:35.607Z,101569.41
2023-05-24T06:26:11.103Z,101576.63
2023-05-24T06:28:45.200Z,101582.69
2023-05-24T06:31:17.677Z,101579.31
2023-05-24T06:34:02.414Z,101573.38
2023-05-24T06:36:41.798Z,101581.56
2023-05-24T06:39:16.488Z,101585.13
2023-05-24T06:41:51.750Z,101581.56
2023-05-24T06:44:30.909Z,101587.22
2023-05-24T06:47:02.966Z,101599.38
2023-05-24T06:49:35.631Z,101598.28
2023-05-24T06:52:11.241Z,101607.31
2023-05-24T06:54:44.191Z,101608.03
2023-05-24T06:57:16.607Z,101608.16
2023-05-24T06:59:49.085Z,101607.03
2023-05-24T07:02:24.666Z,101615.09
2023-05-24T07:04:57.513Z,101613.97
2023-05-24T07:07:32.975Z,101609.00
2023-05-24T07:10:05.633Z,101619.16
2023-05-24T07:12:37.763Z,101617.03
2023-05-24T07:15:13.765Z,101614.72
2023-05-24T07:17:48.830Z,101625.94
2023-05-24T07:20:22.098Z,101626.63
2023-05-24T07:22:57.858Z,101634.44
2023-05-24T07:25:30.393Z,101628.41
2023-05-24T07:28:03.027Z,101629.31
2023-05-24T07:30:37.874Z,101627.41
2023-05-24T07:33:11.039Z,101632.91
2023-05-24T07:35:55.594Z,101632.13
2023-05-24T07:54:30.765Z,101661.31
2023-05-24T07:57:41.994Z,101666.56
2023-05-24T08:00:18.651Z,101660.50
2023-05-24T08:02:59.313Z,101659.72
2023-05-24T08:05:34.827Z,101662.03
2023-05-24T08:08:08.554Z,101654.38
2023-05-24T08:10:42.228Z,101661.41
2023-05-24T08:13:16.752Z,101667.28
2023-05-24T08:15:51.593Z,101666.78
2023-05-24T08:18:44.313Z,101669.16
2023-05-24T08:21:27.867Z,101665.97
2023-05-24T08:24:07.503Z,101661.00
2023-05-24T08:26:47.471Z,101673.25
2023-05-24T08:29:20.797Z,101678.00
2023-05-24T08:31:55.935Z,101671.66
2023-05-24T08:34:37.990Z,101680.94
2023-05-24T08:37:23.065Z,101677.56
2023-05-24T08:39:57.579Z,101678.03
2023-05-24T08:45:34.945Z,101689.63
2023-05-24T08:48:09.365Z,101687.03
2023-05-24T08:50:47.186Z,101682.34
2023-05-24T08:53:24.631Z,101693.91
2023-05-24T08:55:59.636Z,101692.66
2023-05-24T08:58:43.681Z,101691.25
2023-05-24T09:01:18.485Z,101692.44
2023-05-24T09:03:56.841Z,101698.34
2023-05-24T09:06:37.948Z,101704.06
2023-05-24T09:12:53.549Z,101707.06
2023-05-24T09:15:32.186Z,101698.09
2023-05-24T09:21:16.257Z,101708.94
2023-05-24T09:23:54.558Z,101703.66
2023-05-24T09:26:35.821Z,101707.72
2023-05-24T09:29:18.753Z,101704.06
2023-05-24T09:32:20.967Z,101700.28
2023-05-24T09:35:07.354Z,101697.72
2023-05-24T09:37:44.506Z,101698.56
2023-05-24T09:40:28.810Z,101702.19
2023-05-24T09:43:13.557Z,101700.22
2023-05-24T09:52:22.436Z,101706.22
2023-05-24T09:55:00.853Z,101705.06
2023-05-24T10:00:42.934Z,101713.41
2023-05-24T10:03:16.811Z,101720.56
2023-05-24T10:05:53.901Z,101722.38
2023-05-24T10:08:29.199Z,101719.06
2023-05-24T10:11:09.944Z,101724.88
2023-05-24T10:14:07.153Z,101725.50
2023-05-24T10:16:42.603Z,101721.47
2023-05-24T10:41:33.864Z,101728.03
2023-05-24T10:44:38.344Z,101724.16
2023-05-24T11:27:54.819Z,101726.59
2023-05-24T11:35:18.879Z,101725.00
2023-05-24T11:38:12.509Z,101721.72
2023-05-24T11:40:49.546Z,101727.47
2023-05-24T11:43:28.546Z,101730.16
2023-05-24T11:46:10.568Z,101728.09
2023-05-24T11:49:00.145Z,101729.09
2023-05-24T11:51:42.441Z,101730.47
2023-05-24T11:54:18.824Z,101731.81
2023-05-24T11:56:59.025Z,101722.00
2023-05-24T11:59:38.388Z,101724.72
2023-05-24T12:02:13.218Z,101729.94
2023-05-24T12:04:47.822Z,101731.09
2023-05-24T12:07:43.358Z,101729.91
2023-05-24T12:10:24.310Z,101724.91
2023-05-24T12:13:10.990Z,101732.19
2023-05-24T12:18:39.938Z,101738.09
2023-05-24T12:24:35.770Z,101744.84
2023-05-24T12:27:12.050Z,101739.25
2023-05-24T12:29:47.616Z,101741.66
2023-05-24T12:32:25.551Z,101737.63
2023-05-24T12:35:00.306Z,101734.41
2023-05-24T12:37:45.003Z,101733.56
2023-05-24T12:40:24.178Z,101736.94
2023-05-24T12:43:01.449Z,101737.28
2023-05-24T12:46:08.650Z,101741.69
2023-05-24T12:48:48.819Z,101734.25
2023-05-24T12:52:08.322Z,101735.22
2023-05-24T12:55:56.346Z,101733.88
2023-05-24T13:02:52.667Z,101735.09
2023-05-24T13:06:56.733Z,101737.94
2023-05-24T13:14:57.817Z,101736.25
2023-05-24T13:25:52.856Z,101737.94
2023-05-24T13:45:38.214Z,101738.06
2023-05-24T13:56:19.744Z,101734.88
2023-05-24T13:57:10.022Z,101739.34
2023-05-24T13:58:34.141Z,101735.16
2023-05-24T14:05:21.745Z,101733.19
2023-05-24T14:13:16.223Z,101737.28
2023-05-24T14:17:19.384Z,101731.94
2023-05-24T14:20:54.296Z,101733.56
2023-05-24T14:37:05.585Z,101724.50
2023-05-24T14:40:17.653Z,101719.59
2023-05-24T14:43:01.018Z,101729.25
2023-05-24T14:45:38.794Z,101725.69
2023-05-24T14:48:22.258Z,101729.09
2023-05-24T14:51:55.257Z,101718.41
2023-05-24T14:54:34.545Z,101735.28
2023-05-24T14:57:47.262Z,101732.16
2023-05-24T15:00:28.815Z,101721.41
2023-05-24T15:03:34.133Z,101722.88
2023-05-24T15:06:26.937Z,101726.66
2023-05-24T15:09:44.655Z,101723.72
2023-05-24T15:12:40.296Z,101727.94
2023-05-24T15:16:08.937Z,101729.03
2023-05-24T15:22:31.778Z,101738.38
2023-05-24T15:25:22.941Z,101717.00
2023-05-24T15:28:57.217Z,101720.94
2023-05-24T15:31:35.673Z,101717.53
2023-05-24T15:40:35.541Z,101710.22
2023-05-24T15:47:12.301Z,101722.72
2023-05-24T15:50:59.959Z,101728.53
2023-05-24T15:53:38.784Z,101718.00
2023-05-24T16:00:14.857Z,101715.47
2023-05-24T16:03:13.524Z,101722.00
2023-05-24T16:06:36.334Z,101718.66
2023-05-24T16:10:00.745Z,101726.91
2023-05-24T16:12:46.552Z,101725.38
2023-05-24T16:16:27.007Z,101722.44
2023-05-24T16:19:46.873Z,101722.34
2023-05-24T16:23:08.482Z,101721.41
2023-05-24T16:29:28.044Z,101725.31
2023-05-24T16:36:17.214Z,101721.25
2023-05-24T16:40:13.563Z,101730.06
2023-05-24T16:43:47.081Z,101724.56
2023-05-24T16:47:04.103Z,101719.06
2023-05-24T16:53:45.804Z,101716.03
2023-05-24T16:59:54.158Z,101716.34
2023-05-24T17:02:50.182Z,101720.88
2023-05-24T17:05:54.932Z,101728.25
2023-05-24T17:08:44.761Z,101731.00
2023-05-24T17:14:57.206Z,101723.22
2023-05-24T17:22:37.721Z,101731.31
2023-05-24T17:26:17.609Z,101729.00
2023-05-24T17:32:31.281Z,101738.13
2023-05-24T17:35:08.717Z,101738.47
2023-05-24T17:37:46.597Z,101739.66
2023-05-24T17:47:26.195Z,101745.72
2023-05-24T22:10:33.517Z,101922.34
2023-05-24T22:13:08.869Z,101920.63
2023-05-24T22:15:42.732Z,101918.91
2023-05-24T22:21:33.918Z,101926.88
2023-05-24T22:24:18.003Z,101931.28
2023-05-24T22:27:01.677Z,101925.16
2023-05-24T22:30:33.182Z,101926.16
2023-05-24T22:33:09.993Z,101925.28
2023-05-24T22:35:43.166Z,101930.13
2023-05-24T22:38:28.054Z,101919.34
2023-05-24T22:51:23.306Z,101934.75
2023-05-24T22:53:59.348Z,101930.94
2023-05-24T22:56:33.210Z,101929.22
2023-05-24T23:02:50.594Z,101927.53
2023-05-24T23:05:42.256Z,101928.69
2023-05-24T23:08:15.883Z,101931.09
2023-05-24T23:10:48.772Z,101931.09
2023-05-24T23:13:21.784Z,101932.22
2023-05-24T23:15:54.683Z,101926.25
2023-05-24T23:18:28.602Z,101927.38
2023-05-24T23:21:03.654Z,101929.78
2023-05-24T23:23:37.960Z,101931.50
2023-05-24T23:26:10.292Z,101927.38
2023-05-24T23:28:42.583Z,101930.34
2023-05-24T23:31:14.613Z,101930.50
2023-05-24T23:33:47.134Z,101937.00
2023-05-24T23:36:21.794Z,101938.25
2023-05-24T23:38:53.973Z,101936.09
2023-05-24T23:41:26.752Z,101934.28
2023-05-24T23:43:59.031Z,101935.25
2023-05-24T23:46:33.439Z,101932.84
2023-05-24T23:49:06.028Z,101934.69
2023-05-24T23:51:40.916Z,101945.59
2023-05-24T23:54:15.136Z,101936.09
2023-05-24T23:56:47.078Z,101936.22
2023-05-24T23:59:20.225Z,101947.41
